Time;durP1;ratioP1;P1;durP2;ratioP2;P2;SDS_P1;SDS_P2;PMS_P1;PMS_P2;Temp;Humidity;BMP_temperature;BMP_pressure;BME280_temperature;BME280_humidity;BME280_pressure;Samples;Min_cycle;Max_cycle;Signal;HPM_P1;HPM_P2
2023/03/05 00:01:52;;;;;;;1.67;0.40;;;3.30;99.90;;;;;;5031039;28;20053;-73
2023/03/05 00:04:17;;;;;;;4.00;0.57;;;3.80;99.90;;;;;;5013097;28;20503;-74
2023/03/05 00:06:43;;;;;;;5.45;0.70;;;4.20;99.90;;;;;;5032045;28;20077;-74
2023/03/05 00:09:09;;;;;;;6.88;0.50;;;3.50;99.90;;;;;;5051159;28;20040;-74
2023/03/05 00:11:35;;;;;;;2.75;0.57;;;3.40;99.90;;;;;;5032779;28;20043;-75
2023/03/05 00:14:03;;;;;;;3.35;0.52;;;4.50;99.90;;;;;;5050831;28;20048;-73
2023/03/05 00:16:29;;;;;;;4.65;0.50;;;3.90;99.90;;;;;;5050665;28;20045;-74
2023/03/05 00:18:56;;;;;;;1.75;0.30;;;4.10;99.90;;;;;;5050388;28;20120;-75
2023/03/05 00:21:37;;;;;;;3.00;0.32;;;3.70;99.90;;;;;;5050486;28;20070;-74
2023/03/05 00:24:06;;;;;;;6.97;0.50;;;3.40;99.90;;;;;;5030614;28;20030;-74
2023/03/05 00:26:34;;;;;;;2.75;0.40;;;3.40;99.90;;;;;;5012974;28;20422;-74
2023/03/05 00:29:00;;;;;;;1.73;0.40;;;3.80;99.90;;;;;;5030418;28;20045;-74
2023/03/05 00:31:29;;;;;;;2.03;0.50;;;3.80;99.90;;;;;;5030170;28;20475;-74
2023/03/05 00:34:00;;;;;;;2.25;0.40;;;3.90;99.90;;;;;;5013213;28;20053;-73
2023/03/05 00:36:26;;;;;;;3.72;0.50;;;3.20;99.90;;;;;;5030448;28;20048;-74
2023/03/05 00:38:53;;;;;;;2.63;0.50;;;3.30;99.90;;;;;;5030658;28;20045;-74
2023/03/05 00:41:19;;;;;;;2.75;0.50;;;3.40;99.90;;;;;;5030383;28;20161;-74
2023/03/05 00:43:44;;;;;;;3.75;0.50;;;3.50;99.90;;;;;;5030416;28;20041;-74
2023/03/05 00:46:10;;;;;;;3.53;0.50;;;3.40;99.90;;;;;;5030647;28;20041;-74
2023/03/05 00:48:36;;;;;;;4.60;0.60;;;3.10;99.90;;;;;;5012668;28;20041;-74
2023/03/05 00:51:02;;;;;;;3.28;0.50;;;3.40;99.90;;;;;;5030460;28;20122;-73
2023/03/05 00:53:28;;;;;;;1.77;0.50;;;3.10;99.90;;;;;;5012755;28;20037;-74
2023/03/05 00:55:53;;;;;;;2.85;0.50;;;4.20;99.90;;;;;;5012975;28;20037;-74
2023/03/05 00:58:19;;;;;;;1.55;0.43;;;3.10;99.90;;;;;;5033817;28;20056;-74
2023/03/05 01:00:45;;;;;;;2.60;0.47;;;3.70;99.90;;;;;;5033413;28;20052;-74
2023/03/05 01:03:10;;;;;;;3.33;0.52;;;3.70;99.90;;;;;;5033660;28;20077;-74
2023/03/05 01:05:36;;;;;;;3.15;0.50;;;3.70;99.90;;;;;;5015800;28;20087;-74
2023/03/05 01:08:02;;;;;;;4.05;0.57;;;3.50;99.90;;;;;;5015886;28;20057;-73
2023/03/05 01:10:29;;;;;;;3.17;0.45;;;3.30;99.90;;;;;;5016108;28;20038;-73
2023/03/05 01:12:55;;;;;;;3.60;0.52;;;4.00;99.90;;;;;;5033675;28;20487;-74
2023/03/05 01:15:21;;;;;;;2.88;0.50;;;3.90;99.90;;;;;;5033227;28;20169;-74
2023/03/05 01:17:47;;;;;;;4.32;0.50;;;3.30;99.90;;;;;;4983005;28;20053;-74
2023/03/05 01:20:17;;;;;;;3.58;0.98;;;3.70;99.90;;;;;;5033460;28;20436;-74
2023/03/05 01:22:42;;;;;;;4.95;0.80;;;3.30;99.90;;;;;;5033811;28;20055;-74
2023/03/05 01:25:09;;;;;;;5.00;0.90;;;3.90;99.90;;;;;;5033441;28;20132;-74
2023/03/05 01:27:35;;;;;;;5.95;0.70;;;4.00;99.90;;;;;;5033242;28;20090;-74
2023/03/05 01:30:00;;;;;;;2.28;0.68;;;3.30;99.90;;;;;;5015583;28;20049;-74
2023/03/05 01:32:26;;;;;;;3.92;1.00;;;3.30;99.90;;;;;;5015458;28;20037;-74
2023/03/05 01:34:52;;;;;;;2.70;0.60;;;3.40;99.90;;;;;;5033002;28;20042;-75
2023/03/05 01:37:17;;;;;;;1.83;0.85;;;3.30;99.90;;;;;;5015245;28;20076;-73
2023/03/05 01:39:43;;;;;;;2.88;0.40;;;3.30;99.90;;;;;;5015764;28;20063;-74
2023/03/05 01:42:09;;;;;;;2.47;0.60;;;3.20;99.90;;;;;;4999191;28;20391;-74
2023/03/05 01:44:34;;;;;;;3.45;0.90;;;3.60;99.90;;;;;;5014986;28;20125;-74
2023/03/05 01:47:00;;;;;;;3.28;0.50;;;3.60;99.90;;;;;;5015572;28;20033;-73
2023/03/05 01:49:27;;;;;;;4.60;0.40;;;3.10;99.90;;;;;;5032857;28;20049;-73
2023/03/05 01:52:18;;;;;;;2.92;0.30;;;3.50;99.90;;;;;;5032734;28;20509;-73
2023/03/05 01:54:46;;;;;;;3.05;0.47;;;3.10;99.90;;;;;;5015344;28;20041;-74
2023/03/05 01:57:26;;;;;;;5.13;0.50;;;3.30;99.90;;;;;;5032790;28;20169;-72
2023/03/05 01:59:58;;;;;;;4.47;1.02;;;3.20;99.90;;;;;;5031733;28;20045;-72
2023/03/05 02:02:24;;;;;;;2.22;0.30;;;4.40;99.90;;;;;;4998409;28;20046;-71
2023/03/05 02:05:30;;;;;;;1.67;0.40;;;3.00;99.90;;;;;;5032809;28;20067;-73
2023/03/05 02:08:00;;;;;;;1.70;0.30;;;3.80;99.90;;;;;;5017257;28;20423;-73
2023/03/05 02:10:35;;;;;;;2.42;0.50;;;3.00;99.90;;;;;;5033611;28;20052;-73
2023/03/05 02:13:05;;;;;;;2.67;0.52;;;3.00;99.90;;;;;;5032769;28;20057;-74
2023/03/05 02:15:32;;;;;;;1.88;0.30;;;3.50;99.90;;;;;;5014760;28;20042;-73
2023/03/05 02:18:00;;;;;;;7.25;0.63;;;3.50;99.90;;;;;;5032119;28;20090;-73
2023/03/05 02:20:29;;;;;;;2.63;0.43;;;3.00;99.90;;;;;;5032525;28;20045;-72
2023/03/05 02:22:55;;;;;;;2.45;0.30;;;2.80;99.90;;;;;;5014940;28;20120;-72
2023/03/05 02:25:24;;;;;;;1.45;0.25;;;3.10;99.90;;;;;;5032543;28;20045;-72
2023/03/05 02:28:02;;;;;;;3.25;0.40;;;3.00;99.90;;;;;;5014897;28;20037;-72
2023/03/05 02:30:30;;;;;;;6.85;0.40;;;2.90;99.90;;;;;;4998420;28;20049;-72
2023/03/05 02:32:56;;;;;;;3.03;0.40;;;2.80;99.90;;;;;;5032272;28;20037;-72
2023/03/05 02:35:21;;;;;;;4.40;0.40;;;4.30;99.90;;;;;;5032226;28;20050;-72
2023/03/05 02:37:47;;;;;;;1.75;0.22;;;2.90;99.90;;;;;;5014265;28;20046;-73
2023/03/05 02:40:13;;;;;;;3.70;0.50;;;3.40;99.90;;;;;;5031983;28;20075;-72
2023/03/05 02:42:39;;;;;;;2.13;0.30;;;3.00;99.90;;;;;;5032321;28;20045;-73
2023/03/05 02:45:06;;;;;;;3.00;0.40;;;2.90;99.90;;;;;;5031808;28;20381;-73
2023/03/05 02:47:31;;;;;;;1.15;0.35;;;2.90;99.90;;;;;;5014794;28;20480;-72
2023/03/05 02:49:58;;;;;;;1.77;0.20;;;3.00;99.90;;;;;;5032102;28;20046;-73
2023/03/05 02:52:24;;;;;;;2.63;0.30;;;3.00;99.90;;;;;;4998522;28;20405;-73
2023/03/05 02:54:51;;;;;;;1.92;0.20;;;3.10;99.90;;;;;;5014060;28;20080;-73
2023/03/05 02:57:17;;;;;;;2.17;0.30;;;3.50;99.90;;;;;;5031761;28;20052;-73
2023/03/05 02:59:44;;;;;;;2.58;0.30;;;2.90;99.90;;;;;;5031564;28;20049;-73
2023/03/05 03:02:09;;;;;;;1.63;0.40;;;4.30;99.90;;;;;;5031787;28;20084;-73
2023/03/05 03:04:35;;;;;;;2.88;0.40;;;3.40;99.90;;;;;;5014520;28;20078;-73
2023/03/05 03:07:01;;;;;;;3.33;0.30;;;3.00;99.90;;;;;;5013606;28;20048;-73
2023/03/05 03:09:26;;;;;;;5.65;0.38;;;3.30;99.90;;;;;;5031939;28;20120;-73
2023/03/05 03:11:52;;;;;;;2.53;0.30;;;3.10;99.90;;;;;;5031798;28;20040;-72
2023/03/05 03:14:19;;;;;;;3.83;0.30;;;3.50;99.90;;;;;;5031554;28;20049;-73
2023/03/05 03:16:45;;;;;;;3.67;0.40;;;3.30;99.90;;;;;;5032013;28;20093;-73
2023/03/05 03:19:10;;;;;;;3.95;0.40;;;3.70;99.90;;;;;;5030467;28;20045;-73
2023/03/05 03:21:36;;;;;;;2.38;0.43;;;3.50;99.90;;;;;;5031425;28;20222;-73
2023/03/05 03:24:02;;;;;;;2.28;0.47;;;3.10;99.90;;;;;;5031303;28;20047;-73
2023/03/05 03:26:29;;;;;;;2.30;0.32;;;3.10;99.90;;;;;;5031565;28;20037;-72
2023/03/05 03:28:54;;;;;;;2.53;0.30;;;3.20;99.90;;;;;;5031084;28;20055;-73
2023/03/05 03:31:20;;;;;;;2.78;0.35;;;3.90;99.90;;;;;;5031427;28;20545;-73
2023/03/05 03:33:46;;;;;;;2.90;0.40;;;3.50;99.90;;;;;;5013726;28;20038;-73
2023/03/05 03:36:12;;;;;;;2.08;0.30;;;3.30;99.90;;;;;;5013207;28;20105;-73
2023/03/05 03:38:37;;;;;;;4.40;0.40;;;3.00;99.90;;;;;;5013791;28;20467;-73
2023/03/05 03:41:06;;;;;;;0.52;0.30;;;3.40;99.90;;;;;;5031395;28;20053;-73
2023/03/05 03:43:33;;;;;;;3.03;0.40;;;2.90;99.90;;;;;;5031149;28;20037;-72
2023/03/05 03:45:59;;;;;;;0.80;0.30;;;2.80;99.90;;;;;;5013583;28;20068;-73
2023/03/05 03:48:25;;;;;;;3.92;0.40;;;3.50;99.90;;;;;;5030928;28;20037;-73
2023/03/05 03:50:50;;;;;;;2.33;0.70;;;3.80;99.90;;;;;;5013585;28;20037;-73
2023/03/05 03:53:16;;;;;;;6.72;0.50;;;3.80;99.90;;;;;;5013692;28;20053;-73
2023/03/05 03:55:43;;;;;;;3.92;0.30;;;2.90;99.90;;;;;;5013480;28;20129;-73
2023/03/05 03:58:09;;;;;;;2.03;0.40;;;3.40;99.90;;;;;;5030877;28;20056;-73
2023/03/05 04:00:35;;;;;;;1.75;0.40;;;3.00;99.90;;;;;;5013337;28;20041;-73
2023/03/05 04:03:01;;;;;;;3.65;0.82;;;2.80;99.90;;;;;;5030886;28;20046;-73
2023/03/05 04:05:27;;;;;;;1.17;0.30;;;2.80;99.90;;;;;;5031019;28;20030;-73
2023/03/05 04:07:53;;;;;;;1.98;0.38;;;3.00;99.90;;;;;;5012649;28;20177;-73
2023/03/05 04:10:19;;;;;;;1.95;0.43;;;3.90;99.90;;;;;;5030722;28;20153;-73
2023/03/05 04:12:45;;;;;;;4.25;0.40;;;2.80;99.90;;;;;;5030713;28;20041;-73
2023/03/05 04:15:10;;;;;;;2.35;0.50;;;3.90;99.90;;;;;;5030704;28;20066;-73
2023/03/05 04:17:37;;;;;;;0.98;0.40;;;3.10;99.90;;;;;;5013096;28;20476;-73
2023/03/05 04:20:04;;;;;;;1.45;0.40;;;3.70;99.90;;;;;;5030589;28;20122;-73
2023/03/05 04:22:30;;;;;;;3.70;0.40;;;2.80;99.90;;;;;;5030779;28;20060;-72
2023/03/05 04:24:56;;;;;;;1.10;0.45;;;2.90;99.90;;;;;;5012940;28;20475;-73
2023/03/05 04:27:21;;;;;;;2.10;0.50;;;3.90;99.90;;;;;;5030521;28;20041;-72
2023/03/05 04:29:47;;;;;;;3.90;0.38;;;2.80;99.90;;;;;;5030684;28;20425;-71
2023/03/05 04:32:13;;;;;;;3.97;0.73;;;2.80;99.90;;;;;;5029418;28;20041;-72
2023/03/05 04:34:39;;;;;;;2.50;0.40;;;3.80;99.90;;;;;;5012806;28;20116;-72
2023/03/05 04:37:05;;;;;;;0.50;0.30;;;2.70;99.90;;;;;;5029747;28;20163;-72
2023/03/05 04:39:30;;;;;;;2.00;0.30;;;2.70;99.90;;;;;;5030552;28;20482;-72
2023/03/05 04:41:56;;;;;;;3.72;0.40;;;3.50;99.90;;;;;;5029942;28;20042;-72
2023/03/05 04:44:24;;;;;;;3.08;0.35;;;3.10;99.90;;;;;;5030420;28;20536;-72
2023/03/05 04:46:49;;;;;;;1.45;0.22;;;3.00;99.90;;;;;;5012746;28;20103;-72
2023/03/05 04:49:15;;;;;;;0.85;0.20;;;2.70;99.90;;;;;;5012890;28;20355;-72
2023/03/05 04:51:41;;;;;;;1.85;0.30;;;3.00;99.90;;;;;;5012692;28;20083;-72
2023/03/05 04:54:07;;;;;;;2.60;0.30;;;2.60;99.90;;;;;;5030142;28;20068;-72
2023/03/05 04:56:33;;;;;;;1.98;0.30;;;2.70;99.90;;;;;;5029982;28;20427;-72
2023/03/05 04:58:59;;;;;;;2.92;0.20;;;3.00;99.90;;;;;;4996432;28;20117;-71
2023/03/05 05:01:25;;;;;;;1.30;0.30;;;2.80;99.90;;;;;;5030198;28;20129;-72
2023/03/05 05:03:50;;;;;;;2.22;0.32;;;2.80;99.90;;;;;;5029932;28;20057;-72
2023/03/05 05:06:16;;;;;;;1.45;0.38;;;3.60;99.90;;;;;;5029763;28;20045;-71
2023/03/05 05:08:42;;;;;;;3.53;0.30;;;3.00;99.90;;;;;;5029827;28;20049;-72
2023/03/05 05:11:12;;;;;;;0.80;0.65;;;2.80;99.90;;;;;;5012366;28;20041;-71
2023/03/05 05:13:37;;;;;;;1.58;0.30;;;2.60;99.90;;;;;;5029923;28;20046;-72
2023/03/05 05:16:06;;;;;;;2.08;0.30;;;2.70;99.90;;;;;;5029909;28;20056;-72
2023/03/05 05:18:31;;;;;;;2.05;0.40;;;2.70;99.90;;;;;;5029996;28;20057;-71
2023/03/05 05:20:57;;;;;;;1.67;0.30;;;3.40;99.90;;;;;;5029827;28;20037;-71
2023/03/05 05:23:23;;;;;;;2.65;0.30;;;2.80;99.90;;;;;;4995756;28;20049;-71
2023/03/05 05:25:57;;;;;;;4.30;0.50;;;2.80;99.90;;;;;;5012044;28;20097;-71
2023/03/05 05:28:22;;;;;;;0.32;0.20;;;3.30;99.90;;;;;;5030009;28;20406;-71
2023/03/05 05:30:48;;;;;;;3.75;0.45;;;2.80;99.90;;;;;;5029860;28;20037;-72
2023/03/05 05:33:14;;;;;;;2.38;0.40;;;3.00;99.90;;;;;;5012189;28;20049;-72
2023/03/05 05:35:39;;;;;;;3.55;0.40;;;2.90;99.90;;;;;;5029682;28;20072;-71
2023/03/05 05:38:05;;;;;;;1.23;0.25;;;3.20;99.90;;;;;;5028931;28;20132;-73
2023/03/05 05:40:31;;;;;;;2.00;0.30;;;3.00;99.90;;;;;;5029353;28;20063;-72
2023/03/05 05:42:56;;;;;;;2.60;0.40;;;2.80;99.90;;;;;;5030866;28;20041;-71
2023/03/05 05:45:22;;;;;;;2.33;0.50;;;3.50;99.90;;;;;;5015777;28;20051;-72
2023/03/05 05:47:48;;;;;;;2.28;0.30;;;3.10;99.90;;;;;;5032812;28;20478;-72
2023/03/05 05:50:14;;;;;;;2.75;0.40;;;2.50;99.90;;;;;;5033098;28;20471;-72
2023/03/05 05:52:39;;;;;;;2.97;0.30;;;2.70;99.90;;;;;;5032561;28;20069;-73
2023/03/05 05:55:06;;;;;;;1.10;0.30;;;3.00;99.90;;;;;;5032527;28;20110;-72
2023/03/05 05:57:32;;;;;;;3.38;0.63;;;2.50;99.90;;;;;;5032951;28;20110;-72
2023/03/05 05:59:58;;;;;;;2.60;0.43;;;2.60;99.90;;;;;;5015318;28;20049;-72
2023/03/05 06:02:23;;;;;;;2.67;0.40;;;2.70;99.90;;;;;;5033162;28;20089;-72
2023/03/05 06:04:49;;;;;;;3.95;0.50;;;3.60;99.90;;;;;;4999052;28;20099;-72
2023/03/05 06:07:15;;;;;;;2.25;0.47;;;2.70;99.90;;;;;;5032563;28;20073;-72
2023/03/05 06:09:40;;;;;;;1.67;0.30;;;2.50;99.90;;;;;;5032270;28;20041;-72
2023/03/05 06:12:06;;;;;;;1.85;0.45;;;2.60;99.90;;;;;;5032896;28;20037;-72
2023/03/05 06:14:32;;;;;;;1.33;0.40;;;2.30;99.90;;;;;;5015203;28;20107;-72
2023/03/05 06:16:58;;;;;;;3.55;0.50;;;3.20;99.90;;;;;;5015042;28;20474;-72
2023/03/05 06:19:23;;;;;;;3.50;0.47;;;3.40;99.90;;;;;;5015091;28;20081;-72
2023/03/05 06:21:49;;;;;;;3.92;0.40;;;2.50;99.90;;;;;;5014683;28;20037;-73
2023/03/05 06:24:15;;;;;;;2.00;0.40;;;2.90;99.90;;;;;;5032467;28;20073;-72
2023/03/05 06:26:40;;;;;;;2.25;0.40;;;3.40;99.90;;;;;;5032271;28;20041;-72
2023/03/05 06:29:06;;;;;;;2.33;0.70;;;2.60;99.90;;;;;;5015018;28;20072;-72
2023/03/05 06:31:32;;;;;;;3.17;0.50;;;2.40;99.90;;;;;;5032307;28;20041;-72
2023/03/05 06:34:00;;;;;;;3.40;0.68;;;3.20;99.90;;;;;;5014663;28;20120;-73
2023/03/05 06:36:26;;;;;;;3.75;0.43;;;2.70;99.90;;;;;;4998057;28;20056;-72
2023/03/05 06:38:52;;;;;;;2.85;0.50;;;2.90;99.90;;;;;;5032116;28;20041;-72
2023/03/05 06:41:21;;;;;;;2.75;0.50;;;2.60;99.90;;;;;;5032229;28;20042;-72
2023/03/05 06:43:48;;;;;;;3.47;0.50;;;2.40;99.90;;;;;;5032414;28;20116;-72
2023/03/05 06:46:19;;;;;;;5.38;0.70;;;2.80;99.90;;;;;;5015230;28;20543;-72
2023/03/05 06:48:46;;;;;;;2.38;0.50;;;2.70;99.90;;;;;;5032534;28;20045;-72
2023/03/05 06:51:23;;;;;;;5.30;0.50;;;3.60;99.90;;;;;;5017789;28;20099;-72
2023/03/05 06:53:50;;;;;;;5.57;0.90;;;3.20;99.90;;;;;;5048232;28;20052;-72
2023/03/05 06:56:17;;;;;;;4.93;1.42;;;3.00;99.90;;;;;;5031836;28;20416;-72
2023/03/05 06:58:45;;;;;;;3.03;0.70;;;3.60;99.90;;;;;;5014532;28;20041;-71
2023/03/05 07:01:11;;;;;;;4.30;0.50;;;3.70;99.90;;;;;;5031655;28;20034;-71
2023/03/05 07:03:37;;;;;;;3.35;0.60;;;3.20;99.90;;;;;;5031627;28;20045;-71
2023/03/05 07:06:04;;;;;;;4.53;0.40;;;2.80;99.90;;;;;;4997715;28;20466;-72
2023/03/05 07:08:31;;;;;;;1.10;0.47;;;2.70;99.90;;;;;;5014168;28;20045;-71
2023/03/05 07:10:57;;;;;;;2.47;0.45;;;3.00;99.90;;;;;;5013926;28;20041;-71
2023/03/05 07:13:23;;;;;;;6.10;0.50;;;3.30;99.90;;;;;;5032015;28;20485;-71
2023/03/05 07:15:48;;;;;;;2.17;0.43;;;2.80;99.90;;;;;;5031884;28;20472;-71
2023/03/05 07:18:14;;;;;;;3.03;0.50;;;3.40;99.90;;;;;;5031427;28;20065;-72
2023/03/05 07:20:40;;;;;;;1.48;0.40;;;3.50;99.90;;;;;;4997915;28;20121;-71
2023/03/05 07:23:05;;;;;;;4.38;0.43;;;3.60;99.90;;;;;;5031574;28;20121;-72
2023/03/05 07:25:34;;;;;;;2.70;0.40;;;3.90;99.90;;;;;;5031658;28;20466;-71
2023/03/05 07:27:59;;;;;;;2.67;0.47;;;2.60;99.90;;;;;;5014072;28;20160;-71
2023/03/05 07:30:25;;;;;;;2.45;0.40;;;3.10;99.90;;;;;;5031507;28;20506;-71
2023/03/05 07:32:51;;;;;;;1.92;0.45;;;3.60;99.90;;;;;;5031122;28;20050;-72
2023/03/05 07:35:17;;;;;;;3.20;0.70;;;3.00;99.90;;;;;;5014016;28;20462;-71
2023/03/05 07:37:42;;;;;;;0.63;0.25;;;3.10;99.90;;;;;;5030748;28;20067;-71
2023/03/05 07:40:09;;;;;;;1.42;0.30;;;2.80;99.90;;;;;;5013739;28;20077;-71
2023/03/05 07:42:34;;;;;;;1.65;0.30;;;2.80;99.90;;;;;;5013616;28;20049;-71
2023/03/05 07:45:00;;;;;;;3.53;0.47;;;3.30;99.90;;;;;;5031281;28;20475;-71
2023/03/05 07:47:26;;;;;;;1.67;0.20;;;3.70;99.90;;;;;;5013515;28;20049;-71
2023/03/05 07:49:52;;;;;;;1.95;0.28;;;3.10;99.90;;;;;;5031496;28;20049;-71
2023/03/05 07:52:17;;;;;;;3.08;0.52;;;3.30;99.90;;;;;;5031012;28;20037;-72
2023/03/05 07:54:43;;;;;;;1.50;0.30;;;3.40;99.90;;;;;;5031091;28;20089;-71
2023/03/05 07:57:12;;;;;;;1.00;0.30;;;3.80;99.90;;;;;;5030949;28;20045;-71
2023/03/05 07:59:38;;;;;;;1.02;0.30;;;3.50;99.90;;;;;;5013814;28;20054;-71
2023/03/05 08:02:05;;;;;;;3.00;0.30;;;3.20;99.90;;;;;;5030481;28;20526;-72
2023/03/05 08:04:30;;;;;;;4.43;0.60;;;3.10;99.90;;;;;;5031157;28;20041;-70
2023/03/05 08:06:57;;;;;;;1.27;0.35;;;3.40;99.90;;;;;;5030062;28;20048;-70
2023/03/05 08:09:23;;;;;;;3.47;0.20;;;4.00;99.90;;;;;;5013729;28;20139;-71
2023/03/05 08:11:49;;;;;;;0.70;0.20;;;3.60;99.90;;;;;;5030562;28;20128;-71
2023/03/05 08:14:15;;;;;;;2.03;0.30;;;3.90;99.90;;;;;;5030849;28;20045;-71
2023/03/05 08:16:41;;;;;;;2.75;0.30;;;3.40;99.90;;;;;;5030787;28;20484;-71
2023/03/05 08:19:07;;;;;;;3.45;0.60;;;3.50;99.90;;;;;;5009402;28;20133;-71
2023/03/05 08:21:34;;;;;;;2.03;0.30;;;3.90;99.90;;;;;;5011569;28;20046;-71
2023/03/05 08:24:03;;;;;;;6.55;0.60;;;3.70;99.90;;;;;;5009665;28;20041;-71
2023/03/05 08:26:30;;;;;;;2.72;0.43;;;4.20;99.90;;;;;;5010897;28;20057;-71
2023/03/05 08:28:57;;;;;;;1.85;0.30;;;4.10;99.90;;;;;;5010740;28;20038;-71
2023/03/05 08:31:25;;;;;;;3.03;0.70;;;4.20;99.90;;;;;;5010790;28;20391;-70
2023/03/05 08:33:53;;;;;;;5.03;0.50;;;3.70;99.90;;;;;;5010906;28;20075;-71
2023/03/05 08:36:19;;;;;;;5.00;0.32;;;4.20;99.90;;;;;;5010153;28;20045;-71
2023/03/05 08:38:47;;;;;;;2.72;0.35;;;3.80;99.90;;;;;;5010862;28;20087;-70
2023/03/05 08:41:14;;;;;;;3.42;0.30;;;3.60;99.90;;;;;;5010605;28;20117;-70
2023/03/05 08:43:40;;;;;;;5.03;0.50;;;4.00;99.90;;;;;;5010519;28;20111;-71
2023/03/05 08:46:05;;;;;;;3.13;0.50;;;3.90;99.90;;;;;;5010557;28;20483;-70
2023/03/05 08:48:32;;;;;;;3.97;0.45;;;4.30;99.90;;;;;;5010732;28;20095;-72
2023/03/05 08:51:07;;;;;;;1.23;0.32;;;3.90;99.90;;;;;;5010673;28;20037;-70
2023/03/05 08:53:33;;;;;;;5.18;0.52;;;3.90;99.90;;;;;;5010569;28;20041;-70
2023/03/05 08:55:59;;;;;;;3.15;0.40;;;4.40;99.90;;;;;;5010476;28;20049;-70
2023/03/05 08:58:25;;;;;;;3.60;0.50;;;4.10;99.90;;;;;;5010280;28;20036;-72
2023/03/05 09:00:51;;;;;;;1.33;0.40;;;4.20;99.90;;;;;;5010452;28;20041;-71
2023/03/05 09:03:17;;;;;;;0.32;0.20;;;4.10;99.90;;;;;;5009404;28;20050;-72
2023/03/05 09:05:43;;;;;;;1.73;0.30;;;4.40;99.90;;;;;;5010515;28;20041;-71
2023/03/05 09:08:09;;;;;;;4.53;0.73;;;4.40;99.90;;;;;;5009833;28;20387;-71
2023/03/05 09:10:34;;;;;;;3.78;0.30;;;4.80;99.90;;;;;;5009224;28;20510;-71
2023/03/05 09:13:00;;;;;;;1.77;0.30;;;4.70;99.90;;;;;;5017291;28;20132;-70
2023/03/05 09:15:26;;;;;;;0.70;0.20;;;4.80;99.90;;;;;;5018822;28;20029;-72
2023/03/05 09:17:51;;;;;;;1.35;0.20;;;4.50;99.90;;;;;;5020125;28;20042;-71
2023/03/05 09:20:17;;;;;;;1.27;0.43;;;4.80;99.90;;;;;;5038908;28;20045;-70
2023/03/05 09:22:43;;;;;;;6.03;2.08;;;4.50;99.90;;;;;;5043975;28;20062;-72
2023/03/05 09:25:11;;;;;;;3.35;0.82;;;4.90;99.90;;;;;;5042447;28;20057;-70
2023/03/05 09:27:37;;;;;;;3.35;0.60;;;4.70;99.90;;;;;;5042593;28;20033;-70
2023/03/05 09:30:04;;;;;;;5.03;0.80;;;4.70;99.90;;;;;;5042765;28;20094;-70
2023/03/05 09:32:31;;;;;;;1.00;0.28;;;4.70;99.90;;;;;;5042182;28;20112;-70
2023/03/05 09:34:57;;;;;;;3.78;0.55;;;5.00;99.90;;;;;;5025469;28;20102;-70
2023/03/05 09:37:23;;;;;;;4.82;0.90;;;5.10;99.90;;;;;;5041702;28;20037;-71
2023/03/05 09:39:49;;;;;;;2.50;0.55;;;5.40;99.90;;;;;;5033196;28;20405;-70
2023/03/05 09:42:27;;;;;;;3.70;0.57;;;4.90;99.90;;;;;;5015631;28;20092;-71
2023/03/05 09:45:25;;;;;;;2.35;0.60;;;5.00;99.90;;;;;;5033510;28;20045;-71
2023/03/05 09:47:50;;;;;;;1.67;0.22;;;5.00;99.90;;;;;;5033220;28;20470;-73
2023/03/05 09:50:37;;;;;;;1.00;0.30;;;5.20;99.90;;;;;;5033321;28;20037;-70
2023/03/05 09:53:27;;;;;;;1.00;0.20;;;5.00;99.90;;;;;;5033226;28;20122;-70
2023/03/05 09:55:59;;;;;;;1.58;0.30;;;4.70;99.90;;;;;;5015970;28;20049;-70
2023/03/05 09:58:37;;;;;;;0.80;0.10;;;4.70;99.90;;;;;;5033389;28;20064;-70
2023/03/05 10:01:05;;;;;;;1.75;0.20;;;4.30;99.90;;;;;;5032849;28;20046;-70
2023/03/05 10:03:48;;;;;;;2.33;0.50;;;4.30;99.90;;;;;;5054914;28;20119;-71
2023/03/05 10:06:35;;;;;;;2.60;0.55;;;4.20;99.90;;;;;;5059933;28;20041;-70
2023/03/05 10:09:39;;;;;;;6.53;0.90;;;4.30;99.90;;;;;;5041467;28;20076;-70
2023/03/05 10:12:23;;;;;;;1.17;0.30;;;4.30;99.90;;;;;;5070660;28;20044;-70
2023/03/05 10:14:49;;;;;;;2.83;0.50;;;4.40;99.90;;;;;;5042058;28;20049;-71
2023/03/05 10:17:25;;;;;;;1.33;0.40;;;5.80;99.90;;;;;;5052549;28;20041;-70
2023/03/05 10:20:05;;;;;;;1.88;0.40;;;4.60;99.90;;;;;;5034655;28;20363;-71
2023/03/05 10:22:50;;;;;;;2.00;0.40;;;4.70;99.90;;;;;;5052543;28;20206;-70
2023/03/05 10:25:24;;;;;;;1.77;0.30;;;5.10;99.90;;;;;;5052730;28;20055;-74
2023/03/05 10:27:52;;;;;;;0.90;0.20;;;4.70;99.90;;;;;;5033790;28;20053;-72
2023/03/05 10:30:53;;;;;;;1.42;0.20;;;5.00;99.90;;;;;;5033888;28;20083;-73
2023/03/05 10:33:34;;;;;;;2.03;0.45;;;4.90;99.90;;;;;;5052021;28;20057;-71
2023/03/05 10:36:18;;;;;;;3.58;0.40;;;4.90;99.90;;;;;;5043846;28;20101;-72
2023/03/05 10:38:58;;;;;;;0.52;0.20;;;4.90;99.90;;;;;;5014771;28;20049;-72
2023/03/05 10:41:38;;;;;;;2.80;0.55;;;4.90;99.90;;;;;;5032397;28;20042;-71
2023/03/05 10:44:10;;;;;;;0.85;0.22;;;4.80;99.90;;;;;;5033407;28;20041;-74
2023/03/05 10:46:38;;;;;;;2.53;0.30;;;4.90;99.90;;;;;;5043648;28;20068;-73
2023/03/05 10:49:24;;;;;;;1.92;0.40;;;5.10;99.90;;;;;;5041712;28;20094;-72
2023/03/05 10:52:14;;;;;;;2.83;0.50;;;5.10;99.90;;;;;;5025165;28;20048;-72
2023/03/05 10:54:41;;;;;;;3.92;0.57;;;5.20;99.90;;;;;;5040415;28;20052;-71
2023/03/05 10:57:22;;;;;;;5.38;0.40;;;5.30;99.90;;;;;;5027037;28;20079;-72
2023/03/05 10:59:51;;;;;;;1.95;0.10;;;5.40;99.90;;;;;;5042416;28;20076;-75
2023/03/05 11:02:18;;;;;;;2.10;0.20;;;5.70;99.90;;;;;;5025012;28;20068;-73
2023/03/05 11:04:46;;;;;;;3.10;0.25;;;5.70;99.90;;;;;;5023742;28;20082;-73
2023/03/05 11:07:14;;;;;;;1.40;0.52;;;5.70;99.90;;;;;;5037292;28;20398;-71
2023/03/05 11:09:41;;;;;;;0.60;0.28;;;5.50;99.90;;;;;;5041933;28;20041;-71
2023/03/05 11:12:14;;;;;;;2.83;0.32;;;5.70;99.90;;;;;;5039720;28;20043;-70
2023/03/05 11:14:42;;;;;;;;;;;5.90;99.90;;;;;;5025346;28;20041;-72
2023/03/05 11:17:31;;;;;;;1.52;0.28;;;6.10;99.90;;;;;;5025095;28;19999;-69
2023/03/05 11:20:18;;;;;;;5.00;0.60;;;6.00;99.90;;;;;;5040460;28;20052;-70
2023/03/05 11:23:14;;;;;;;1.13;0.25;;;6.10;99.90;;;;;;5023539;28;20041;-71
2023/03/05 11:26:02;;;;;;;2.05;0.20;;;6.10;99.90;;;;;;5039140;28;20117;-71
2023/03/05 11:28:54;;;;;;;2.03;0.20;;;6.10;99.90;;;;;;5041756;28;20041;-72
2023/03/05 11:31:25;;;;;;;2.92;0.30;;;6.10;99.90;;;;;;5039408;28;20052;-71
2023/03/05 11:34:07;;;;;;;3.83;0.47;;;6.10;99.90;;;;;;5042048;28;20120;-72
2023/03/05 11:36:37;;;;;;;4.13;0.40;;;6.10;99.90;;;;;;5038698;28;20117;-72
2023/03/05 11:39:08;;;;;;;2.65;0.40;;;6.20;99.90;;;;;;5039932;28;20049;-72
2023/03/05 11:41:44;;;;;;;0.88;0.40;;;6.20;99.90;;;;;;5040358;28;20037;-73
2023/03/05 11:44:27;;;;;;;1.75;0.30;;;6.00;99.90;;;;;;5038310;28;20037;-74
2023/03/05 11:46:58;;;;;;;0.60;0.30;;;5.90;99.90;;;;;;5038780;28;20481;-72
2023/03/05 11:49:27;;;;;;;2.28;0.40;;;5.90;99.90;;;;;;5035012;28;20037;-72
2023/03/05 11:52:07;;;;;;;7.30;1.92;;;5.90;99.90;;;;;;5034896;28;20394;-72
2023/03/05 11:54:47;;;;;;;4.72;0.80;;;6.00;99.90;;;;;;5031261;28;20042;-70
2023/03/05 11:57:14;;;;;;;3.42;0.73;;;6.40;99.90;;;;;;5031178;28;20037;-72
2023/03/05 11:59:41;;;;;;;2.50;0.60;;;6.20;99.90;;;;;;5031090;28;20045;-71
2023/03/05 12:02:23;;;;;;;0.70;0.30;;;6.30;99.90;;;;;;5030893;28;20059;-72
2023/03/05 12:04:50;;;;;;;1.40;0.30;;;6.40;99.90;;;;;;5030955;28;20509;-72
2023/03/05 12:07:21;;;;;;;2.30;0.30;;;6.20;99.90;;;;;;5030800;28;20132;-74
2023/03/05 12:09:51;;;;;;;1.70;0.30;;;6.10;99.90;;;;;;5031060;28;20041;-73
2023/03/05 12:12:31;;;;;;;1.52;0.32;;;6.10;99.90;;;;;;5041415;28;20037;-74
2023/03/05 12:15:11;;;;;;;4.07;0.55;;;6.10;99.90;;;;;;5050345;28;20135;-73
2023/03/05 12:17:48;;;;;;;0.68;0.20;;;6.20;99.90;;;;;;5049819;28;20101;-73
2023/03/05 12:20:25;;;;;;;1.75;0.25;;;6.30;99.90;;;;;;5050483;28;20149;-70
2023/03/05 12:22:50;;;;;;;1.88;0.30;;;6.30;99.90;;;;;;5049607;28;20052;-72
2023/03/05 12:25:52;;;;;;;1.98;0.22;;;6.30;99.90;;;;;;5050314;28;20549;-71
2023/03/05 12:28:33;;;;;;;1.40;0.20;;;6.30;99.90;;;;;;5031835;28;20088;-73
2023/03/05 12:31:04;;;;;;;1.45;0.20;;;6.20;99.90;;;;;;5049842;28;20041;-73
2023/03/05 12:33:49;;;;;;;1.90;0.40;;;6.30;99.90;;;;;;5050084;28;20057;-75
2023/03/05 12:36:21;;;;;;;5.80;0.43;;;6.30;99.90;;;;;;5049624;28;20499;-73
2023/03/05 12:38:50;;;;;;;3.38;0.50;;;6.20;99.90;;;;;;5048737;28;20041;-74
2023/03/05 12:41:22;;;;;;;3.22;0.70;;;6.20;99.90;;;;;;5037618;28;20143;-83
2023/03/05 12:44:06;;;;;;;2.50;0.30;;;6.10;99.90;;;;;;5037849;28;20033;-74
2023/03/05 12:46:40;;;;;;;2.78;0.45;;;6.10;99.90;;;;;;5039376;28;20041;-74
2023/03/05 12:49:19;;;;;;;2.30;0.30;;;6.10;99.90;;;;;;5028174;28;20041;-75
2023/03/05 12:51:50;;;;;;;4.28;0.50;;;6.20;99.90;;;;;;5020855;28;20051;-73
2023/03/05 12:54:22;;;;;;;1.88;0.30;;;6.10;99.90;;;;;;5043393;28;20037;-75
2023/03/05 12:56:49;;;;;;;1.85;0.30;;;6.10;99.90;;;;;;5042429;28;20045;-74
2023/03/05 12:59:20;;;;;;;3.78;0.40;;;6.40;99.90;;;;;;5043600;28;20120;-73
2023/03/05 13:01:52;;;;;;;1.75;0.40;;;6.10;99.90;;;;;;5024107;28;20044;-73
2023/03/05 13:04:25;;;;;;;3.83;0.40;;;6.20;99.90;;;;;;5026734;28;20120;-71
2023/03/05 13:07:03;;;;;;;0.55;0.30;;;6.40;99.90;;;;;;5042093;28;20045;-71
2023/03/05 13:09:32;;;;;;;3.22;0.22;;;6.30;99.90;;;;;;5024790;28;20047;-71